Miller Field
KVTN : rendu visible

Aérodrome :











RETROUVEZ-NOUS SUR...

 
LOGIN :

S'inscrire | Disclaimer

   EN    FR    IT 

 









Légende :    VFR   VFR Marginal   IFR   IFR Intensif   IFR Très Intensif
Visi : 
Plafond : 
>= 8 km
>= 3000ft
5 à 8 km
1000 à 3000 ft
1500m à 5 km
500 à 1000 ft
800 à 1500m
200 à 500 ft
< 800m
< 200 ft
Symboles :   Orages  Brouillard  Fortes neiges  Fortes précipitations  Vent > 20 kt






- Altitude de l'aérodrome : 2596 ft


KVTN - Miller Field

DERNIER METAR :
  • 131713Z AUTO 34015KT 10SM BKN014 OVC020 04/01 A3001 RMK AO2 T00440006

METARs EXPIRÉS :
  • 131700Z AUTO 32013G22KT 10SM SCT014 OVC020 04/01 A3001 RMK AO2 T00440006
  • 131652Z AUTO 33012KT 10SM BKN014 OVC021 04/01 A3000 RMK AO2 PK WND 33028/1619 SLP178 T00440011
  • 131552Z AUTO 34017G24KT 10SM BKN010 BKN015 04/01 A2998 RMK AO2 RAB1453E17 CIG 008V011 SLP169 P0000 T00390011
  • 131536Z AUTO 33013G21KT 10SM BKN009 04/01 A2997 RMK AO2 RAB1453E17 CIG 008V014 P0000 T00390011
  • 131452Z AUTO 31008KT 10SM BKN014 OVC045 04/02 A2995 RMK AO2 RAE49 SLP162 P0002 60003 T00390017 51024

TAF KVTN
Valide du 13 à 12h jusqu'au 14 à 12h UTC


131133Z 1312/1412 34007KT 6SM -RA OVC045
FM131300 34011KT P6SM BKN100
FM131700 32013G20KT P6SM BKN040
FM132300 VRB04KT P6SM SCT060
FM140600 VRB04KT P6SM BKN250



MET'MAP, la Météo Aéronautique d'un coup d'oeil ! - Copyright ORBIFLY Décembre 2007 - Disclaimer

ORBIFLY MET'MAP TEAM :

Programmation & Développement : Alexandra Zaïnal
Conception & Développement : Baudouin d'Aumeries
Co-Programmation & Développement : Marc-Olivier Méhu
Soutien technique & logistique : Manuel Goepfert

Contact : metmap@orbifly.com




SOURCES & CREDITS :

   NOAA       Earth
Advisory